createdAt,value
2017-05-25T00:00:07.043Z,1017.86
2017-05-25T00:01:07.025Z,1017.87
2017-05-25T00:02:07.007Z,1017.86
2017-05-25T00:03:06.982Z,1017.88
2017-05-25T00:04:06.957Z,1017.87
2017-05-25T00:05:06.936Z,1017.87
2017-05-25T00:06:06.916Z,1017.85
2017-05-25T00:07:06.894Z,1017.87
2017-05-25T00:08:06.876Z,1017.86
2017-05-25T00:09:06.854Z,1017.85
2017-05-25T00:10:06.831Z,1017.91
2017-05-25T00:11:06.810Z,1017.93
2017-05-25T00:12:06.789Z,1017.86
2017-05-25T00:13:06.768Z,1017.84
2017-05-25T00:14:06.746Z,1017.93
2017-05-25T00:15:06.725Z,1017.88
2017-05-25T00:16:06.704Z,1017.87
2017-05-25T00:17:06.681Z,1017.86
2017-05-25T00:18:06.659Z,1017.89
2017-05-25T00:19:06.636Z,1017.86
2017-05-25T00:20:06.615Z,1017.88
2017-05-25T00:21:06.598Z,1017.93
2017-05-25T00:22:06.577Z,1017.92
2017-05-25T00:23:06.555Z,1017.91
2017-05-25T00:24:06.532Z,1017.91
2017-05-25T00:25:06.516Z,1017.83
2017-05-25T00:26:06.489Z,1017.86
2017-05-25T00:27:06.468Z,1017.82
2017-05-25T00:28:06.447Z,1017.87
2017-05-25T00:29:06.426Z,1017.82
2017-05-25T00:30:06.401Z,1017.78
2017-05-25T00:31:06.381Z,1017.78
2017-05-25T00:32:06.360Z,1017.75
2017-05-25T00:33:06.339Z,1017.77
2017-05-25T00:34:06.320Z,1017.79
2017-05-25T00:35:06.297Z,1017.8
2017-05-25T00:36:06.278Z,1017.82
2017-05-25T00:37:06.255Z,1017.83
2017-05-25T00:38:06.229Z,1017.81
2017-05-25T00:39:06.210Z,1017.84
2017-05-25T00:40:06.188Z,1017.84
2017-05-25T00:41:06.171Z,1017.79
2017-05-25T00:42:06.146Z,1017.81
2017-05-25T00:43:06.123Z,1017.79
2017-05-25T00:44:06.102Z,1017.78
2017-05-25T00:45:06.080Z,1017.74
2017-05-25T00:46:06.059Z,1017.73
2017-05-25T00:47:06.038Z,1017.72
2017-05-25T00:48:06.017Z,1017.73
2017-05-25T00:49:05.995Z,1017.72
2017-05-25T00:50:05.977Z,1017.71
2017-05-25T00:51:05.951Z,1017.74
2017-05-25T00:52:05.930Z,1017.7
2017-05-25T00:53:05.913Z,1017.71
2017-05-25T00:54:05.886Z,1017.71
2017-05-25T00:55:05.870Z,1017.69
2017-05-25T00:56:05.843Z,1017.72
2017-05-25T00:57:05.822Z,1017.69
2017-05-25T00:58:05.800Z,1017.69
2017-05-25T00:59:05.779Z,1017.7
2017-05-25T01:00:05.757Z,1017.72
2017-05-25T01:01:05.740Z,1017.75
2017-05-25T01:02:05.714Z,1017.72
2017-05-25T01:03:05.692Z,1017.74
2017-05-25T01:04:05.671Z,1017.75
2017-05-25T01:05:05.649Z,1017.71
2017-05-25T01:06:05.627Z,1017.73
2017-05-25T01:07:05.607Z,1017.69
2017-05-25T01:08:05.584Z,1017.71
2017-05-25T01:09:05.567Z,1017.69
2017-05-25T01:10:05.542Z,1017.71
2017-05-25T01:11:05.521Z,1017.73
2017-05-25T01:12:05.506Z,1017.78
2017-05-25T01:13:05.478Z,1017.77
2017-05-25T01:14:05.454Z,1017.78
2017-05-25T01:15:05.433Z,1017.83
2017-05-25T01:16:05.413Z,1017.79
2017-05-25T01:17:05.392Z,1017.85
2017-05-25T01:18:05.371Z,1017.87
2017-05-25T01:19:05.351Z,1017.84
2017-05-25T01:20:05.328Z,1017.88
2017-05-25T01:21:05.307Z,1017.9
2017-05-25T01:22:05.283Z,1017.94
2017-05-25T01:23:05.264Z,1017.96
2017-05-25T01:24:05.240Z,1017.98
2017-05-25T01:25:05.219Z,1017.96
2017-05-25T01:26:05.197Z,1017.95
2017-05-25T01:27:05.175Z,1017.95
2017-05-25T01:28:05.154Z,1017.96
2017-05-25T01:29:05.137Z,1017.97
2017-05-25T01:30:05.109Z,1018
2017-05-25T01:31:05.088Z,1017.91
2017-05-25T01:32:05.067Z,1018
2017-05-25T01:33:05.044Z,1018.01
2017-05-25T01:34:05.024Z,1017.96
2017-05-25T01:35:05.004Z,1018.02
2017-05-25T01:36:04.991Z,1018
2017-05-25T01:37:04.960Z,1017.96
2017-05-25T01:38:04.938Z,1017.99
2017-05-25T01:39:04.917Z,1017.98
2017-05-25T01:40:04.892Z,1017.94
2017-05-25T01:41:04.871Z,1017.97
2017-05-25T01:42:04.851Z,1017.92
2017-05-25T01:43:04.830Z,1017.94
2017-05-25T01:44:04.811Z,1017.94
2017-05-25T01:45:04.785Z,1017.9
2017-05-25T01:46:04.765Z,1017.87
2017-05-25T01:47:04.742Z,1017.9
2017-05-25T01:48:04.720Z,1017.89
2017-05-25T01:49:04.704Z,1017.89
2017-05-25T01:50:04.675Z,1017.88
2017-05-25T01:51:04.658Z,1017.85
2017-05-25T01:52:04.637Z,1017.88
2017-05-25T01:53:04.626Z,1017.86
2017-05-25T01:54:04.592Z,1017.81
2017-05-25T01:55:04.572Z,1017.87
2017-05-25T01:56:04.551Z,1017.84
2017-05-25T01:57:04.527Z,1017.81
2017-05-25T01:58:04.505Z,1017.85
2017-05-25T01:59:04.482Z,1017.86
2017-05-25T02:00:04.466Z,1017.88
2017-05-25T02:01:04.440Z,1017.83
2017-05-25T02:02:04.421Z,1017.84
2017-05-25T02:03:04.396Z,1017.84
2017-05-25T02:04:04.375Z,1017.83
2017-05-25T02:05:04.353Z,1017.82
2017-05-25T02:06:04.332Z,1017.82
2017-05-25T02:07:04.310Z,1017.79
2017-05-25T02:08:04.287Z,1017.76
2017-05-25T02:09:04.265Z,1017.74
2017-05-25T02:10:04.244Z,1017.7
2017-05-25T02:11:04.226Z,1017.68
2017-05-25T02:12:04.203Z,1017.65
2017-05-25T02:13:04.182Z,1017.62
2017-05-25T02:14:04.161Z,1017.64
2017-05-25T02:15:04.139Z,1017.63
2017-05-25T02:16:04.118Z,1017.65
2017-05-25T02:17:04.095Z,1017.63
2017-05-25T02:18:04.080Z,1017.65
2017-05-25T02:19:04.050Z,1017.68
2017-05-25T02:20:04.033Z,1017.64
2017-05-25T02:21:04.005Z,1017.62
2017-05-25T02:22:03.987Z,1017.64
2017-05-25T02:23:03.964Z,1017.63
2017-05-25T02:24:03.943Z,1017.64
2017-05-25T02:25:03.921Z,1017.69
2017-05-25T02:26:03.899Z,1017.7
2017-05-25T02:27:03.878Z,1017.66
2017-05-25T02:28:03.858Z,1017.69
2017-05-25T02:29:03.837Z,1017.65
2017-05-25T02:30:03.814Z,1017.69
2017-05-25T02:31:03.792Z,1017.68
2017-05-25T02:32:03.771Z,1017.7
2017-05-25T02:33:03.751Z,1017.69
2017-05-25T02:34:03.726Z,1017.68
2017-05-25T02:35:03.703Z,1017.65
2017-05-25T02:36:03.683Z,1017.69
2017-05-25T02:37:03.660Z,1017.66
2017-05-25T02:38:03.640Z,1017.71
2017-05-25T02:39:03.617Z,1017.72
2017-05-25T02:40:03.647Z,1017.71
2017-05-25T02:41:03.575Z,1017.72
2017-05-25T02:42:03.553Z,1017.71
2017-05-25T02:43:03.531Z,1017.67
2017-05-25T02:44:03.563Z,1017.73
2017-05-25T02:45:03.488Z,1017.68
2017-05-25T02:46:03.468Z,1017.71
2017-05-25T02:47:03.445Z,1017.72
2017-05-25T02:48:03.422Z,1017.73
2017-05-25T02:49:03.401Z,1017.72
2017-05-25T02:50:03.384Z,1017.77
2017-05-25T02:51:03.358Z,1017.77
2017-05-25T02:52:03.338Z,1017.78
2017-05-25T02:53:03.317Z,1017.73
2017-05-25T02:54:03.299Z,1017.74
2017-05-25T02:55:03.273Z,1017.75
2017-05-25T02:56:03.253Z,1017.72
2017-05-25T02:57:03.233Z,1017.74
2017-05-25T02:58:03.208Z,1017.72
2017-05-25T02:59:03.186Z,1017.73
2017-05-25T03:00:03.166Z,1017.74
2017-05-25T03:01:03.146Z,1017.73
2017-05-25T03:02:03.126Z,1017.73
2017-05-25T03:03:03.099Z,1017.72
2017-05-25T03:04:03.079Z,1017.7
2017-05-25T03:05:03.057Z,1017.76
2017-05-25T03:06:03.037Z,1017.72
2017-05-25T03:07:03.016Z,1017.75
2017-05-25T03:08:02.993Z,1017.75
2017-05-25T03:09:02.969Z,1017.76
2017-05-25T03:10:02.950Z,1017.81
2017-05-25T03:11:02.930Z,1017.8
2017-05-25T03:12:02.911Z,1017.78
2017-05-25T03:13:02.884Z,1017.79
2017-05-25T03:14:02.863Z,1017.82
2017-05-25T03:15:02.842Z,1017.79
2017-05-25T03:16:02.819Z,1017.82
2017-05-25T03:17:02.801Z,1017.81
2017-05-25T03:18:02.777Z,1017.77
2017-05-25T03:19:02.757Z,1017.85
2017-05-25T03:20:02.734Z,1017.84
2017-05-25T03:21:02.711Z,1017.89
2017-05-25T03:22:02.691Z,1017.94
2017-05-25T03:23:02.671Z,1017.92
2017-05-25T03:24:02.649Z,1017.95
2017-05-25T03:25:02.627Z,1017.95
2017-05-25T03:26:02.609Z,1017.91
2017-05-25T03:27:02.582Z,1017.93
2017-05-25T03:28:02.611Z,1017.91
2017-05-25T03:29:02.540Z,1017.95
2017-05-25T03:30:02.520Z,1017.98
2017-05-25T03:31:02.497Z,1018.01
2017-05-25T03:32:02.477Z,1017.94
2017-05-25T03:33:02.455Z,1017.92
2017-05-25T03:34:02.433Z,1017.92
2017-05-25T03:35:02.412Z,1017.96
2017-05-25T03:36:02.397Z,1017.92
2017-05-25T03:37:02.368Z,1017.98
2017-05-25T03:38:02.346Z,1017.94
2017-05-25T03:39:02.327Z,1018
2017-05-25T03:40:02.304Z,1017.95
2017-05-25T03:41:02.282Z,1017.98
2017-05-25T03:42:02.261Z,1018
2017-05-25T03:43:02.241Z,1017.97
2017-05-25T03:44:02.222Z,1017.98
2017-05-25T03:45:02.197Z,1017.99
2017-05-25T03:46:02.177Z,1017.98
2017-05-25T03:47:02.156Z,1017.96
2017-05-25T03:48:02.131Z,1017.92
2017-05-25T03:49:02.111Z,1017.98
2017-05-25T03:50:02.089Z,1017.98
2017-05-25T03:51:02.070Z,1018
2017-05-25T03:52:02.043Z,1017.99
2017-05-25T03:53:02.024Z,1018.04
2017-05-25T03:54:02.007Z,1018.07
2017-05-25T03:55:01.981Z,1018
2017-05-25T03:56:02.011Z,1018.03
2017-05-25T03:57:01.939Z,1017.97
2017-05-25T03:58:01.922Z,1017.98
2017-05-25T03:59:01.897Z,1018.01
2017-05-25T04:00:01.874Z,1018
2017-05-25T04:01:01.852Z,1018.03
2017-05-25T04:02:01.837Z,1018.02
2017-05-25T04:03:02.110Z,1017.98
2017-05-25T04:04:01.788Z,1017.97
2017-05-25T04:05:01.766Z,1017.96
2017-05-25T04:06:01.744Z,1017.97
2017-05-25T04:07:01.723Z,1017.97
2017-05-25T04:08:01.702Z,1017.96
2017-05-25T04:09:01.681Z,1017.94
2017-05-25T04:10:01.660Z,1017.93
2017-05-25T04:11:01.639Z,1017.95
2017-05-25T04:12:01.618Z,1017.95
2017-05-25T04:13:01.594Z,1017.98
2017-05-25T04:14:01.573Z,1018
2017-05-25T04:15:01.549Z,1017.99
2017-05-25T04:16:01.528Z,1018.01
2017-05-25T04:17:01.507Z,1018.01
2017-05-25T04:18:01.485Z,1018.02
2017-05-25T04:19:01.464Z,1018
2017-05-25T04:20:01.443Z,1017.99
2017-05-25T04:21:01.421Z,1018.04
2017-05-25T04:22:01.399Z,1018.05
2017-05-25T04:23:01.377Z,1018.07
2017-05-25T04:24:01.357Z,1018.07
2017-05-25T04:25:01.334Z,1018.08
2017-05-25T04:26:01.314Z,1018.11
2017-05-25T04:27:01.592Z,1018.09
2017-05-25T04:28:01.270Z,1018.1
2017-05-25T04:29:01.249Z,1018.14
2017-05-25T04:30:01.229Z,1018.1
2017-05-25T04:31:01.206Z,1018.09
2017-05-25T04:32:01.189Z,1018.18
2017-05-25T04:33:01.168Z,1018.17
2017-05-25T04:34:01.143Z,1018.15
2017-05-25T04:35:01.120Z,1018.16
2017-05-25T04:36:01.098Z,1018.18
2017-05-25T04:37:01.078Z,1018.22
2017-05-25T04:38:01.057Z,1018.23
2017-05-25T04:39:01.036Z,1018.22
2017-05-25T04:40:01.011Z,1018.2
2017-05-25T04:41:00.995Z,1018.21
2017-05-25T04:42:00.969Z,1018.21
2017-05-25T04:43:00.951Z,1018.21
2017-05-25T04:44:00.927Z,1018.24
2017-05-25T04:45:00.905Z,1018.21
2017-05-25T04:46:00.884Z,1018.23
2017-05-25T04:47:00.862Z,1018.29
2017-05-25T04:48:00.839Z,1018.25
2017-05-25T04:49:00.818Z,1018.26
2017-05-25T04:50:00.797Z,1018.21
2017-05-25T04:51:00.776Z,1018.2
2017-05-25T04:52:00.755Z,1018.26
2017-05-25T04:53:00.732Z,1018.19
2017-05-25T04:54:00.714Z,1018.21
2017-05-25T04:55:00.690Z,1018.2
2017-05-25T04:56:00.669Z,1018.23
2017-05-25T04:57:00.648Z,1018.19
2017-05-25T04:58:00.627Z,1018.2
2017-05-25T04:59:00.607Z,1018.22
2017-05-25T05:00:00.584Z,1018.25
2017-05-25T05:01:00.563Z,1018.23
2017-05-25T05:02:00.542Z,1018.29
2017-05-25T05:03:00.521Z,1018.24
2017-05-25T05:04:00.500Z,1018.25
2017-05-25T05:05:00.480Z,1018.23
2017-05-25T05:06:00.455Z,1018.28
2017-05-25T05:07:00.485Z,1018.23
2017-05-25T05:08:00.414Z,1018.29
2017-05-25T05:09:00.395Z,1018.29
2017-05-25T05:10:00.368Z,1018.3
2017-05-25T05:11:00.349Z,1018.31
2017-05-25T05:12:00.331Z,1018.35
2017-05-25T05:13:00.304Z,1018.36
2017-05-25T05:14:00.335Z,1018.39
2017-05-25T05:15:00.262Z,1018.43
2017-05-25T05:16:00.293Z,1018.44
2017-05-25T05:17:00.220Z,1018.49
2017-05-25T05:18:00.198Z,1018.5
2017-05-25T05:19:00.182Z,1018.47
2017-05-25T05:20:00.156Z,1018.48
2017-05-25T05:21:00.135Z,1018.46
2017-05-25T05:22:00.115Z,1018.49
2017-05-25T05:23:00.092Z,1018.49
2017-05-25T05:24:00.066Z,1018.49
2017-05-25T05:25:00.048Z,1018.53
2017-05-25T05:26:00.027Z,1018.55
2017-05-25T05:27:00.008Z,1018.5
2017-05-25T05:27:59.986Z,1018.58
2017-05-25T05:28:59.961Z,1018.61
2017-05-25T05:29:59.943Z,1018.53
2017-05-25T05:30:59.927Z,1018.55
2017-05-25T05:31:59.899Z,1018.58
2017-05-25T05:32:59.879Z,1018.59
2017-05-25T05:33:59.857Z,1018.58
2017-05-25T05:34:59.832Z,1018.54
2017-05-25T05:35:59.812Z,1018.53
2017-05-25T05:36:59.790Z,1018.55
2017-05-25T05:37:59.769Z,1018.54
2017-05-25T05:38:59.748Z,1018.54
2017-05-25T05:39:59.726Z,1018.5
2017-05-25T05:40:59.707Z,1018.53
2017-05-25T05:41:59.685Z,1018.53
2017-05-25T05:42:59.664Z,1018.53
2017-05-25T05:43:59.643Z,1018.51
2017-05-25T05:44:59.621Z,1018.49
2017-05-25T05:45:59.600Z,1018.45
2017-05-25T05:46:59.579Z,1018.47
2017-05-25T05:47:59.557Z,1018.49
2017-05-25T05:48:59.537Z,1018.48
2017-05-25T05:49:59.512Z,1018.48
2017-05-25T05:50:59.494Z,1018.5
2017-05-25T05:51:59.473Z,1018.55
2017-05-25T05:52:59.449Z,1018.55
2017-05-25T05:53:59.427Z,1018.57
2017-05-25T05:54:59.405Z,1018.57
2017-05-25T05:55:59.388Z,1018.6
2017-05-25T05:56:59.365Z,1018.57
2017-05-25T05:57:59.347Z,1018.65
2017-05-25T05:58:59.323Z,1018.7
2017-05-25T05:59:59.304Z,1018.7
2017-05-25T06:00:59.284Z,1018.68
2017-05-25T06:01:59.261Z,1018.7
2017-05-25T06:02:59.240Z,1018.72
2017-05-25T06:03:59.216Z,1018.72
2017-05-25T06:04:59.198Z,1018.73
2017-05-25T06:05:59.180Z,1018.68
2017-05-25T06:06:59.157Z,1018.63
2017-05-25T06:07:59.135Z,1018.55
2017-05-25T06:08:59.112Z,1018.61
2017-05-25T06:09:59.092Z,1018.63
2017-05-25T06:10:59.069Z,1018.6
2017-05-25T06:11:59.051Z,1018.67
2017-05-25T06:12:59.027Z,1018.62
2017-05-25T06:13:59.008Z,1018.63
2017-05-25T06:14:58.990Z,1018.61
2017-05-25T06:15:58.968Z,1018.64
2017-05-25T06:16:58.946Z,1018.58
2017-05-25T06:17:58.926Z,1018.59
2017-05-25T06:18:58.907Z,1018.62
2017-05-25T06:19:58.885Z,1018.64
2017-05-25T06:20:58.866Z,1018.61
2017-05-25T06:21:58.845Z,1018.66
2017-05-25T06:22:58.824Z,1018.66
2017-05-25T06:23:58.808Z,1018.69
2017-05-25T06:24:58.786Z,1018.69
2017-05-25T06:25:58.767Z,1018.7
2017-05-25T06:26:58.745Z,1018.73
2017-05-25T06:27:58.779Z,1018.73
2017-05-25T06:28:58.706Z,1018.71
2017-05-25T06:29:58.686Z,1018.77
2017-05-25T06:30:58.667Z,1018.8
2017-05-25T06:31:58.649Z,1018.8
2017-05-25T06:32:58.629Z,1018.73
2017-05-25T06:33:58.610Z,1018.8
2017-05-25T06:34:58.602Z,1018.83
2017-05-25T06:35:58.577Z,1018.82
2017-05-25T06:36:58.557Z,1018.84
2017-05-25T06:37:58.540Z,1018.88
2017-05-25T06:38:58.520Z,1018.84
2017-05-25T06:39:58.503Z,1018.87
2017-05-25T06:40:58.480Z,1018.92
2017-05-25T06:41:58.469Z,1018.9
2017-05-25T06:42:58.451Z,1018.9
2017-05-25T06:43:58.433Z,1018.93
2017-05-25T06:44:58.419Z,1018.9
2017-05-25T06:45:58.401Z,1018.86
2017-05-25T06:46:58.390Z,1018.89
2017-05-25T06:47:58.368Z,1018.88
2017-05-25T06:48:58.351Z,1018.91
2017-05-25T06:49:58.335Z,1018.91
2017-05-25T06:50:58.320Z,1018.88
2017-05-25T06:51:58.301Z,1018.9
2017-05-25T06:52:58.282Z,1018.93
2017-05-25T06:53:58.263Z,1018.85
2017-05-25T06:54:58.247Z,1018.86
2017-05-25T06:55:58.230Z,1018.86
2017-05-25T06:56:58.213Z,1018.86
2017-05-25T06:57:58.197Z,1018.79
2017-05-25T06:58:58.180Z,1018.91
2017-05-25T06:59:58.161Z,1018.89
2017-05-25T07:00:58.146Z,1018.86
2017-05-25T07:01:58.127Z,1018.8
2017-05-25T07:02:58.106Z,1018.9
2017-05-25T07:03:58.092Z,1018.94
2017-05-25T07:04:58.073Z,1018.96
2017-05-25T07:05:58.104Z,1018.99
2017-05-25T07:06:58.039Z,1018.88
2017-05-25T07:07:58.024Z,1018.9
2017-05-25T07:08:58.004Z,1018.89
2017-05-25T07:09:57.989Z,1018.99
2017-05-25T07:10:57.974Z,1018.95
2017-05-25T07:11:57.958Z,1018.98
2017-05-25T07:12:57.943Z,1019.01
2017-05-25T07:13:57.932Z,1018.98
2017-05-25T07:14:57.913Z,1019.06
2017-05-25T07:15:57.899Z,1019.01
2017-05-25T07:16:57.890Z,1019.04
2017-05-25T07:17:57.871Z,1019.07
2017-05-25T07:18:57.859Z,1019.09
2017-05-25T07:19:57.847Z,1019.06
2017-05-25T07:20:57.835Z,1019.05
2017-05-25T07:21:57.819Z,1019.03
2017-05-25T07:22:57.806Z,1019.12
2017-05-25T07:23:57.798Z,1019.11
2017-05-25T07:24:57.781Z,1019.09
2017-05-25T07:25:57.766Z,1019.1
2017-05-25T07:26:57.756Z,1019.1
2017-05-25T07:27:57.745Z,1019.09
2017-05-25T07:28:57.730Z,1019.06
2017-05-25T07:29:57.716Z,1019.09
2017-05-25T07:30:57.703Z,1019.05
2017-05-25T07:31:57.690Z,1019.04
2017-05-25T07:32:57.677Z,1019.07
2017-05-25T07:33:57.665Z,1019.04
2017-05-25T07:34:57.652Z,1019.09
2017-05-25T07:35:57.643Z,1019.07
2017-05-25T07:36:57.630Z,1019.11
2017-05-25T07:37:57.616Z,1019.1
2017-05-25T07:38:57.609Z,1019.13
2017-05-25T07:39:57.590Z,1019.1
2017-05-25T07:40:57.586Z,1019.08
2017-05-25T07:41:57.569Z,1019.06
2017-05-25T07:42:57.558Z,1019.08
2017-05-25T07:43:57.545Z,1019.04
2017-05-25T07:44:57.532Z,1019.08
2017-05-25T07:45:57.524Z,1019.08
2017-05-25T07:46:57.509Z,1019.09
2017-05-25T07:47:57.498Z,1019.1
2017-05-25T07:48:57.483Z,1019.13
2017-05-25T07:49:57.467Z,1019.19
2017-05-25T07:50:57.454Z,1019.19
2017-05-25T07:51:57.441Z,1019.19
2017-05-25T07:52:57.428Z,1019.18
2017-05-25T07:53:57.419Z,1019.15
2017-05-25T07:54:57.400Z,1019.18
2017-05-25T07:55:57.387Z,1019.16
2017-05-25T07:56:57.372Z,1019.18
2017-05-25T07:57:57.357Z,1019.17
2017-05-25T07:58:57.343Z,1019.24
2017-05-25T07:59:57.328Z,1019.22
2017-05-25T08:00:57.313Z,1019.23
2017-05-25T08:01:57.297Z,1019.27
2017-05-25T08:02:57.281Z,1019.29
2017-05-25T08:03:57.266Z,1019.26
2017-05-25T08:04:57.249Z,1019.28
2017-05-25T08:05:57.281Z,1019.25
2017-05-25T08:06:57.218Z,1019.21
2017-05-25T08:07:57.198Z,1019.21
2017-05-25T08:08:57.184Z,1019.27
2017-05-25T08:09:57.166Z,1019.28
2017-05-25T08:10:57.198Z,1019.26
2017-05-25T08:11:57.131Z,1019.29
2017-05-25T08:12:57.116Z,1019.27
2017-05-25T08:13:57.097Z,1019.24
2017-05-25T08:14:57.078Z,1019.23
2017-05-25T08:15:57.062Z,1019.29
2017-05-25T08:16:57.047Z,1019.27
2017-05-25T08:17:57.032Z,1019.25
2017-05-25T08:18:57.011Z,1019.26
2017-05-25T08:19:56.996Z,1019.18
2017-05-25T08:20:56.978Z,1019.18
2017-05-25T08:21:56.963Z,1019.15
2017-05-25T08:22:56.946Z,1019.17
2017-05-25T08:23:56.931Z,1019.16
2017-05-25T08:24:56.915Z,1019.15
2017-05-25T08:25:56.908Z,1019.18
2017-05-25T08:26:56.887Z,1019.13
2017-05-25T08:27:56.874Z,1019.13
2017-05-25T08:28:56.863Z,1019.17
2017-05-25T08:29:56.849Z,1019.17
2017-05-25T08:30:56.834Z,1019.15
2017-05-25T08:31:56.821Z,1019.17
2017-05-25T08:32:56.809Z,1019.19
2017-05-25T08:33:56.796Z,1019.22
2017-05-25T08:34:56.785Z,1019.29
2017-05-25T08:35:56.772Z,1019.21
2017-05-25T08:36:56.758Z,1019.2
2017-05-25T08:37:56.746Z,1019.21
2017-05-25T08:38:56.734Z,1019.22
2017-05-25T08:39:56.724Z,1019.23
2017-05-25T08:40:56.759Z,1019.2
2017-05-25T08:41:56.756Z,1019.22
2017-05-25T08:42:56.689Z,1019.13
2017-05-25T08:43:56.680Z,1019.15
2017-05-25T08:44:56.665Z,1019.17
2017-05-25T08:45:56.655Z,1019.2
2017-05-25T08:46:56.645Z,1019.17
2017-05-25T08:47:56.636Z,1019.2
2017-05-25T08:48:56.622Z,1019.21
2017-05-25T08:49:56.613Z,1019.19
2017-05-25T08:50:56.598Z,1019.2
2017-05-25T08:51:56.590Z,1019.17
2017-05-25T08:52:56.579Z,1019.13
2017-05-25T08:53:56.572Z,1019.18
2017-05-25T08:54:56.560Z,1019.2
2017-05-25T08:55:56.551Z,1019.17
2017-05-25T08:56:56.541Z,1019.19
2017-05-25T08:57:56.537Z,1019.14
2017-05-25T08:58:56.530Z,1019.18
2017-05-25T08:59:56.515Z,1019.14
2017-05-25T09:00:56.508Z,1019.21
2017-05-25T09:01:56.500Z,1019.14
2017-05-25T09:02:56.489Z,1019.18
2017-05-25T09:03:56.480Z,1019.09
2017-05-25T09:04:56.466Z,1019.12
2017-05-25T09:05:56.458Z,1019.1
2017-05-25T09:06:56.449Z,1019.08
2017-05-25T09:07:56.441Z,1019.03
2017-05-25T09:08:56.482Z,1019.02
2017-05-25T09:09:56.423Z,1019.09
2017-05-25T09:10:56.469Z,1019.08
2017-05-25T09:11:56.409Z,1019.1
2017-05-25T09:12:56.400Z,1019.11
2017-05-25T09:13:56.390Z,1019.2
2017-05-25T09:14:56.384Z,1019.16
2017-05-25T09:15:56.375Z,1019.21
2017-05-25T09:16:56.364Z,1019.2
2017-05-25T09:17:56.354Z,1019.16
2017-05-25T09:18:56.402Z,1019.18
2017-05-25T09:19:56.339Z,1019.1
2017-05-25T09:20:56.329Z,1019.12
2017-05-25T09:21:56.322Z,1019.12
2017-05-25T09:22:56.315Z,1019.1
2017-05-25T09:23:56.305Z,1019.12
2017-05-25T09:24:56.307Z,1019.09
2017-05-25T09:25:56.289Z,1019.09
2017-05-25T09:26:56.280Z,1019.05
2017-05-25T09:27:56.271Z,1019.04
2017-05-25T09:28:56.261Z,1019.08
2017-05-25T09:29:56.255Z,1019.08
2017-05-25T09:30:56.245Z,1019.08
2017-05-25T09:31:56.239Z,1019.07
2017-05-25T09:32:56.227Z,1019.04
2017-05-25T09:33:56.217Z,1019.11
2017-05-25T09:34:56.208Z,1019.11
2017-05-25T09:35:56.200Z,1019.05
2017-05-25T09:36:56.188Z,1019.07
2017-05-25T09:37:56.184Z,1019.03
2017-05-25T09:38:56.173Z,1019.01
2017-05-25T09:39:56.169Z,1019.03
2017-05-25T09:40:56.160Z,1019.04
2017-05-25T09:41:56.151Z,1019
2017-05-25T09:42:56.141Z,1019.01
2017-05-25T09:43:56.133Z,1019.06
2017-05-25T09:44:56.121Z,1019.05
2017-05-25T09:45:56.117Z,1019.06
2017-05-25T09:46:56.102Z,1019.1
2017-05-25T09:47:56.094Z,1019.04
2017-05-25T09:48:56.089Z,1019.01
2017-05-25T09:49:56.080Z,1019.04
2017-05-25T09:50:56.072Z,1018.97
2017-05-25T09:51:56.060Z,1018.99
2017-05-25T09:52:56.053Z,1018.93
2017-05-25T09:53:56.048Z,1018.94
2017-05-25T09:54:56.036Z,1018.92
2017-05-25T09:55:56.029Z,1018.93
2017-05-25T09:56:56.019Z,1018.87
2017-05-25T09:57:56.010Z,1018.85
2017-05-25T09:58:56.005Z,1018.91
2017-05-25T09:59:55.994Z,1018.9
2017-05-25T10:00:55.983Z,1018.87
2017-05-25T10:01:55.976Z,1018.88
2017-05-25T10:02:55.968Z,1018.84
2017-05-25T10:03:55.958Z,1018.94
2017-05-25T10:04:55.946Z,1018.91
2017-05-25T10:05:55.940Z,1018.94
2017-05-25T10:06:55.931Z,1018.95
2017-05-25T10:07:55.923Z,1018.9
2017-05-25T10:08:55.914Z,1018.91
2017-05-25T10:09:55.905Z,1018.9
2017-05-25T10:10:55.896Z,1018.92
2017-05-25T10:11:55.887Z,1018.86
2017-05-25T10:12:55.878Z,1018.84
2017-05-25T10:13:55.869Z,1018.85
2017-05-25T10:14:55.863Z,1018.82
2017-05-25T10:15:55.859Z,1018.81
2017-05-25T10:16:55.842Z,1018.85
2017-05-25T10:17:55.840Z,1018.83
2017-05-25T10:18:55.821Z,1018.85
2017-05-25T10:19:55.814Z,1018.85
2017-05-25T10:20:55.809Z,1018.95
2017-05-25T10:21:55.795Z,1018.85
2017-05-25T10:22:55.838Z,1018.85
2017-05-25T10:23:55.775Z,1018.83
2017-05-25T10:24:55.820Z,1018.86
2017-05-25T10:25:55.760Z,1018.81
2017-05-25T10:26:55.750Z,1018.83
2017-05-25T10:27:55.742Z,1018.72
2017-05-25T10:28:55.731Z,1018.8
2017-05-25T10:29:55.726Z,1018.81
2017-05-25T10:30:55.706Z,1018.76
2017-05-25T10:31:55.702Z,1018.86
2017-05-25T10:32:55.689Z,1018.9
2017-05-25T10:33:55.677Z,1018.86
2017-05-25T10:34:55.664Z,1018.89
2017-05-25T10:35:55.658Z,1018.92
2017-05-25T10:36:55.645Z,1018.91
2017-05-25T10:37:55.636Z,1018.8
2017-05-25T10:38:55.623Z,1018.9
2017-05-25T10:39:55.615Z,1018.83
2017-05-25T10:40:55.604Z,1018.77
2017-05-25T10:41:55.594Z,1018.82
2017-05-25T10:42:55.581Z,1018.79
2017-05-25T10:43:55.579Z,1018.75
2017-05-25T10:44:55.563Z,1018.8
2017-05-25T10:45:55.554Z,1018.75
2017-05-25T10:46:55.544Z,1018.78
2017-05-25T10:47:55.533Z,1018.76
2017-05-25T10:48:55.522Z,1018.75
2017-05-25T10:49:55.512Z,1018.74
2017-05-25T10:50:55.506Z,1018.76
2017-05-25T10:51:55.497Z,1018.75
2017-05-25T10:52:55.485Z,1018.83
2017-05-25T10:53:55.473Z,1018.8
2017-05-25T10:54:55.463Z,1018.78
2017-05-25T10:55:55.454Z,1018.77
2017-05-25T10:56:55.446Z,1018.78
2017-05-25T10:57:55.435Z,1018.77
2017-05-25T10:58:55.424Z,1018.77
2017-05-25T10:59:55.416Z,1018.76
2017-05-25T11:00:55.406Z,1018.69
2017-05-25T11:01:55.394Z,1018.78
2017-05-25T11:02:55.384Z,1018.74
2017-05-25T11:03:55.374Z,1018.75
2017-05-25T11:04:55.366Z,1018.77
2017-05-25T11:05:55.355Z,1018.76
2017-05-25T11:06:55.347Z,1018.75
2017-05-25T11:07:55.338Z,1018.74
2017-05-25T11:08:55.327Z,1018.76
2017-05-25T11:09:55.319Z,1018.68
2017-05-25T11:10:55.307Z,1018.74
2017-05-25T11:11:55.298Z,1018.77
2017-05-25T11:12:55.290Z,1018.71
2017-05-25T11:13:55.279Z,1018.71
2017-05-25T11:14:55.269Z,1018.68
2017-05-25T11:15:55.259Z,1018.71
2017-05-25T11:16:55.251Z,1018.69
2017-05-25T11:17:55.234Z,1018.72
2017-05-25T11:18:55.224Z,1018.7
2017-05-25T11:19:55.218Z,1018.67
2017-05-25T11:20:55.199Z,1018.72
2017-05-25T11:21:55.185Z,1018.72
2017-05-25T11:22:55.174Z,1018.79
2017-05-25T11:23:55.158Z,1018.74
2017-05-25T11:24:55.145Z,1018.78
2017-05-25T11:25:55.130Z,1018.72
2017-05-25T11:26:55.114Z,1018.69
2017-05-25T11:27:55.104Z,1018.73
2017-05-25T11:28:55.081Z,1018.7
2017-05-25T11:29:55.067Z,1018.71
2017-05-25T11:30:55.049Z,1018.71
2017-05-25T11:31:55.036Z,1018.73
2017-05-25T11:32:55.018Z,1018.68
2017-05-25T11:33:55.004Z,1018.69
2017-05-25T11:34:54.989Z,1018.7
2017-05-25T11:35:54.971Z,1018.79
2017-05-25T11:36:54.951Z,1018.73
2017-05-25T11:37:54.938Z,1018.77
2017-05-25T11:38:54.918Z,1018.77
2017-05-25T11:39:54.903Z,1018.74
2017-05-25T11:40:54.887Z,1018.79
2017-05-25T11:41:54.868Z,1018.76
2017-05-25T11:42:54.851Z,1018.81
2017-05-25T11:43:54.834Z,1018.8
2017-05-25T11:44:54.817Z,1018.76
2017-05-25T11:45:54.801Z,1018.69
2017-05-25T11:46:54.784Z,1018.71
2017-05-25T11:47:54.762Z,1018.68
2017-05-25T11:48:54.746Z,1018.7
2017-05-25T11:49:54.730Z,1018.68
2017-05-25T11:50:54.709Z,1018.67
2017-05-25T11:51:54.691Z,1018.72
2017-05-25T11:52:54.676Z,1018.64
2017-05-25T11:53:54.656Z,1018.75
2017-05-25T11:54:54.639Z,1018.65
2017-05-25T11:55:54.622Z,1018.63
2017-05-25T11:56:54.600Z,1018.64
2017-05-25T11:57:54.584Z,1018.68
2017-05-25T11:58:54.566Z,1018.7
2017-05-25T11:59:54.548Z,1018.7
2017-05-25T12:00:54.535Z,1018.73
2017-05-25T12:01:54.515Z,1018.71
2017-05-25T12:02:54.500Z,1018.67
2017-05-25T12:03:54.475Z,1018.73
2017-05-25T12:04:54.458Z,1018.71
2017-05-25T12:05:54.438Z,1018.71
2017-05-25T12:06:54.422Z,1018.63
2017-05-25T12:07:54.402Z,1018.64
2017-05-25T12:08:54.384Z,1018.6